createdAt,value
2018-06-27T00:00:03.160Z,96.42
2018-06-27T00:01:03.153Z,96.42
2018-06-27T00:02:03.145Z,96.42
2018-06-27T00:03:03.141Z,96.61
2018-06-27T00:04:03.131Z,96.32
2018-06-27T00:05:03.128Z,96.61
2018-06-27T00:06:03.118Z,96.75
2018-06-27T00:07:03.110Z,96.51
2018-06-27T00:08:03.102Z,96.99
2018-06-27T00:09:03.098Z,96.75
2018-06-27T00:10:03.088Z,96.84
2018-06-27T00:11:03.081Z,96.56
2018-06-27T00:12:03.096Z,96.56
2018-06-27T00:13:03.069Z,96.66
2018-06-27T00:14:03.059Z,97.13
2018-06-27T00:15:03.053Z,96.84
2018-06-27T00:16:03.047Z,96.56
2018-06-27T00:17:03.039Z,97.13
2018-06-27T00:18:03.031Z,96.94
2018-06-27T00:19:03.025Z,97.03
2018-06-27T00:20:03.018Z,96.84
2018-06-27T00:21:03.010Z,97.03
2018-06-27T00:22:03.003Z,96.56
2018-06-27T00:23:02.994Z,97.03
2018-06-27T00:24:02.989Z,97.13
2018-06-27T00:25:02.980Z,97.03
2018-06-27T00:26:02.972Z,96.94
2018-06-27T00:27:02.965Z,97.03
2018-06-27T00:28:02.961Z,96.94
2018-06-27T00:29:02.951Z,96.84
2018-06-27T00:30:02.944Z,97.03
2018-06-27T00:31:02.939Z,96.94
2018-06-27T00:32:02.929Z,97.13
2018-06-27T00:33:02.924Z,96.46
2018-06-27T00:34:02.914Z,96.94
2018-06-27T00:35:02.906Z,96.84
2018-06-27T00:36:02.899Z,97.03
2018-06-27T00:37:02.892Z,96.84
2018-06-27T00:38:02.884Z,96.84
2018-06-27T00:39:02.885Z,96.75
2018-06-27T00:40:02.871Z,96.84
2018-06-27T00:41:02.862Z,96.37
2018-06-27T00:42:02.859Z,96.98
2018-06-27T00:43:02.847Z,97.37
2018-06-27T00:44:02.840Z,97.27
2018-06-27T00:45:02.843Z,98.03
2018-06-27T00:46:02.825Z,97.94
2018-06-27T00:47:02.817Z,97.85
2018-06-27T00:48:02.813Z,97.85
2018-06-27T00:49:02.802Z,98.23
2018-06-27T00:50:02.794Z,97.94
2018-06-27T00:51:02.789Z,98.32
2018-06-27T00:52:02.783Z,98.23
2018-06-27T00:53:02.773Z,98.13
2018-06-27T00:54:02.764Z,98.42
2018-06-27T00:55:02.757Z,97.75
2018-06-27T00:56:02.751Z,98.03
2018-06-27T00:57:02.743Z,98.32
2018-06-27T00:58:02.734Z,98.42
2018-06-27T00:59:02.727Z,97.85
2018-06-27T01:00:02.720Z,98.13
2018-06-27T01:01:02.712Z,97.75
2018-06-27T01:02:02.705Z,97.94
2018-06-27T01:03:02.699Z,98.42
2018-06-27T01:04:02.693Z,98.32
2018-06-27T01:05:02.682Z,98.71
2018-06-27T01:06:02.676Z,98.61
2018-06-27T01:07:02.667Z,98.61
2018-06-27T01:08:02.660Z,98.80
2018-06-27T01:09:02.652Z,98.61
2018-06-27T01:10:02.645Z,98.80
2018-06-27T01:11:02.636Z,98.90
2018-06-27T01:12:02.629Z,98.42
2018-06-27T01:13:02.622Z,98.42
2018-06-27T01:14:02.816Z,98.61
2018-06-27T01:15:02.606Z,98.61
2018-06-27T01:16:02.600Z,98.52
2018-06-27T01:17:02.591Z,98.61
2018-06-27T01:18:02.583Z,98.71
2018-06-27T01:19:02.576Z,98.52
2018-06-27T01:20:02.581Z,98.56
2018-06-27T01:21:02.561Z,98.75
2018-06-27T01:22:02.552Z,98.42
2018-06-27T01:23:02.549Z,98.42
2018-06-27T01:24:02.538Z,98.42
2018-06-27T01:25:02.530Z,98.56
2018-06-27T01:26:02.522Z,98.37
2018-06-27T01:27:02.516Z,98.52
2018-06-27T01:28:02.506Z,98.71
2018-06-27T01:29:02.499Z,98.32
2018-06-27T01:30:02.695Z,98.71
2018-06-27T01:31:02.483Z,98.90
2018-06-27T01:32:02.484Z,98.52
2018-06-27T01:33:02.472Z,99.08
2018-06-27T01:34:02.459Z,99.08
2018-06-27T01:35:02.453Z,98.75
2018-06-27T01:36:02.448Z,99.04
2018-06-27T01:37:02.437Z,99.04
2018-06-27T01:38:02.434Z,99.37
2018-06-27T01:39:02.421Z,99.18
2018-06-27T01:40:02.414Z,99.23
2018-06-27T01:41:02.406Z,99.47
2018-06-27T01:42:02.398Z,99.04
2018-06-27T01:43:02.390Z,98.85
2018-06-27T01:44:02.384Z,99.18
2018-06-27T01:45:02.375Z,99.13
2018-06-27T01:46:02.366Z,99.08
2018-06-27T01:47:02.359Z,99.37
2018-06-27T01:48:02.352Z,99.37
2018-06-27T01:49:02.344Z,98.94
2018-06-27T01:50:02.336Z,98.90
2018-06-27T01:51:02.329Z,99.37
2018-06-27T01:52:02.323Z,99.08
2018-06-27T01:53:02.313Z,98.99
2018-06-27T01:54:02.310Z,98.99
2018-06-27T01:55:02.298Z,99.52
2018-06-27T01:56:02.290Z,99.28
2018-06-27T01:57:02.282Z,99.61
2018-06-27T01:58:02.273Z,99.13
2018-06-27T01:59:02.266Z,99.61
2018-06-27T02:00:02.260Z,99.42
2018-06-27T02:01:02.251Z,99.80
2018-06-27T02:02:02.248Z,99.32
2018-06-27T02:03:02.235Z,99.61
2018-06-27T02:04:02.227Z,99.52
2018-06-27T02:05:02.220Z,99.32
2018-06-27T02:06:02.212Z,99.61
2018-06-27T02:07:02.203Z,99.32
2018-06-27T02:08:02.196Z,99.42
2018-06-27T02:09:02.188Z,99.32
2018-06-27T02:10:02.179Z,99.61
2018-06-27T02:11:02.172Z,99.13
2018-06-27T02:12:02.164Z,98.94
2018-06-27T02:13:02.159Z,98.85
2018-06-27T02:14:02.153Z,99.42
2018-06-27T02:15:02.141Z,99.32
2018-06-27T02:16:02.133Z,99.42
2018-06-27T02:17:02.127Z,99.32
2018-06-27T02:18:02.116Z,99.61
2018-06-27T02:19:02.112Z,99.61
2018-06-27T02:20:02.102Z,99.32
2018-06-27T02:21:02.093Z,99.23
2018-06-27T02:22:02.088Z,99.23
2018-06-27T02:23:02.077Z,99.23
2018-06-27T02:24:02.069Z,99.32
2018-06-27T02:25:02.062Z,99.13
2018-06-27T02:26:02.053Z,99.32
2018-06-27T02:27:02.045Z,99.32
2018-06-27T02:28:02.037Z,99.37
2018-06-27T02:29:02.030Z,99.80
2018-06-27T02:30:02.026Z,99.71
2018-06-27T02:31:02.015Z,99.56
2018-06-27T02:32:02.009Z,99.32
2018-06-27T02:33:01.998Z,99.08
2018-06-27T02:34:02.250Z,99.85
2018-06-27T02:35:01.981Z,99.37
2018-06-27T02:36:01.973Z,99.52
2018-06-27T02:37:01.985Z,99.75
2018-06-27T02:38:01.961Z,99.37
2018-06-27T02:39:01.949Z,99.85
2018-06-27T02:40:01.941Z,99.56
2018-06-27T02:41:01.933Z,99.66
2018-06-27T02:42:01.925Z,99.46
2018-06-27T02:43:01.916Z,99.99
2018-06-27T02:44:01.908Z,99.99
2018-06-27T02:45:01.904Z,99.99
2018-06-27T02:46:01.892Z,99.99
2018-06-27T02:47:01.884Z,99.99
2018-06-27T02:48:01.880Z,99.99
2018-06-27T02:49:01.879Z,99.99
2018-06-27T02:50:01.869Z,99.99
2018-06-27T02:51:01.853Z,99.99
2018-06-27T02:52:01.844Z,99.99
2018-06-27T02:53:01.842Z,99.95
2018-06-27T02:54:01.832Z,99.95
2018-06-27T02:55:01.820Z,99.66
2018-06-27T02:56:01.812Z,99.66
2018-06-27T02:57:01.866Z,99.75
2018-06-27T02:58:01.795Z,99.46
2018-06-27T02:59:01.793Z,99.37
2018-06-27T03:00:01.780Z,99.46
2018-06-27T03:01:01.771Z,99.56
2018-06-27T03:02:01.770Z,99.37
2018-06-27T03:03:01.754Z,99.66
2018-06-27T03:04:01.746Z,99.99
2018-06-27T03:05:01.754Z,99.85
2018-06-27T03:06:01.731Z,99.85
2018-06-27T03:07:01.730Z,99.99
2018-06-27T03:08:01.715Z,99.99
2018-06-27T03:09:01.706Z,99.99
2018-06-27T03:10:01.697Z,99.99
2018-06-27T03:11:01.691Z,99.99
2018-06-27T03:12:01.681Z,99.99
2018-06-27T03:13:01.673Z,99.99
2018-06-27T03:14:01.671Z,99.99
2018-06-27T03:15:01.656Z,99.99
2018-06-27T03:16:01.652Z,99.99
2018-06-27T03:17:01.639Z,99.99
2018-06-27T03:18:01.635Z,99.99
2018-06-27T03:19:01.622Z,99.99
2018-06-27T03:20:01.650Z,99.99
2018-06-27T03:21:01.611Z,99.99
2018-06-27T03:22:01.599Z,99.99
2018-06-27T03:23:01.590Z,99.99
2018-06-27T03:24:01.584Z,99.99
2018-06-27T03:25:01.573Z,99.99
2018-06-27T03:26:01.565Z,99.99
2018-06-27T03:27:01.555Z,99.99
2018-06-27T03:28:01.548Z,99.99
2018-06-27T03:29:01.540Z,99.99
2018-06-27T03:30:01.540Z,99.99
2018-06-27T03:31:01.532Z,99.99
2018-06-27T03:32:01.524Z,99.99
2018-06-27T03:33:01.510Z,99.99
2018-06-27T03:34:01.503Z,99.99
2018-06-27T03:35:01.497Z,99.99
2018-06-27T03:36:01.486Z,99.99
2018-06-27T03:37:01.473Z,99.99
2018-06-27T03:38:01.468Z,99.99
2018-06-27T03:39:01.458Z,99.99
2018-06-27T03:40:01.453Z,99.99
2018-06-27T03:41:01.443Z,99.99
2018-06-27T03:42:01.431Z,99.99
2018-06-27T03:43:01.422Z,99.99
2018-06-27T03:44:01.421Z,99.99
2018-06-27T03:45:01.409Z,99.99
2018-06-27T03:46:01.399Z,99.99
2018-06-27T03:47:01.391Z,99.99
2018-06-27T03:48:01.385Z,99.99
2018-06-27T03:49:01.374Z,99.99
2018-06-27T03:50:01.367Z,99.99
2018-06-27T03:51:01.358Z,99.99
2018-06-27T03:52:01.349Z,99.99
2018-06-27T03:53:01.340Z,99.99
2018-06-27T03:54:01.330Z,99.99
2018-06-27T03:55:01.323Z,99.99
2018-06-27T03:56:01.319Z,99.99
2018-06-27T03:57:01.308Z,99.99
2018-06-27T03:58:01.297Z,99.99
2018-06-27T03:59:01.958Z,99.99
2018-06-27T04:00:01.281Z,99.99
2018-06-27T04:01:01.276Z,99.99
2018-06-27T04:02:01.264Z,99.99
2018-06-27T04:03:01.260Z,99.99
2018-06-27T04:04:01.252Z,99.99
2018-06-27T04:05:01.242Z,99.99
2018-06-27T04:06:01.232Z,99.99
2018-06-27T04:07:01.222Z,99.99
2018-06-27T04:08:01.217Z,99.99
2018-06-27T04:09:01.206Z,99.99
2018-06-27T04:10:01.201Z,99.99
2018-06-27T04:11:01.190Z,99.99
2018-06-27T04:12:01.182Z,99.99
2018-06-27T04:13:01.490Z,99.99
2018-06-27T04:14:01.168Z,99.99
2018-06-27T04:15:01.161Z,99.99
2018-06-27T04:16:01.149Z,99.99
2018-06-27T04:17:01.143Z,99.99
2018-06-27T04:18:01.334Z,99.99
2018-06-27T04:19:01.125Z,99.99
2018-06-27T04:20:01.120Z,99.99
2018-06-27T04:21:01.108Z,99.99
2018-06-27T04:22:01.099Z,99.99
2018-06-27T04:23:01.093Z,99.99
2018-06-27T04:24:01.083Z,99.99
2018-06-27T04:25:01.079Z,99.99
2018-06-27T04:26:01.071Z,99.99
2018-06-27T04:27:01.062Z,99.99
2018-06-27T04:28:01.054Z,99.99
2018-06-27T04:29:01.045Z,99.99
2018-06-27T04:30:01.034Z,99.99
2018-06-27T04:31:01.029Z,99.99
2018-06-27T04:32:01.018Z,99.99
2018-06-27T04:33:01.010Z,99.99
2018-06-27T04:34:01.001Z,99.99
2018-06-27T04:35:01.003Z,99.99
2018-06-27T04:36:01.056Z,99.90
2018-06-27T04:37:00.980Z,99.71
2018-06-27T04:38:00.980Z,99.32
2018-06-27T04:39:00.967Z,99.04
2018-06-27T04:40:01.159Z,99.13
2018-06-27T04:41:00.950Z,99.23
2018-06-27T04:42:00.939Z,99.13
2018-06-27T04:43:00.929Z,99.13
2018-06-27T04:44:00.922Z,98.85
2018-06-27T04:45:00.914Z,98.75
2018-06-27T04:46:00.907Z,98.94
2018-06-27T04:47:00.898Z,98.75
2018-06-27T04:48:00.891Z,98.75
2018-06-27T04:49:00.882Z,98.85
2018-06-27T04:50:00.878Z,99.08
2018-06-27T04:51:00.866Z,99.08
2018-06-27T04:52:00.860Z,99.18
2018-06-27T04:53:00.851Z,98.75
2018-06-27T04:54:00.842Z,99.18
2018-06-27T04:55:00.891Z,99.32
2018-06-27T04:56:00.831Z,99.47
2018-06-27T04:57:00.819Z,98.99
2018-06-27T04:58:00.815Z,99.37
2018-06-27T04:59:00.805Z,99.28
2018-06-27T05:00:00.795Z,99.18
2018-06-27T05:01:00.787Z,99.37
2018-06-27T05:02:00.781Z,99.28
2018-06-27T05:03:00.981Z,98.99
2018-06-27T05:04:00.768Z,98.99
2018-06-27T05:05:00.762Z,98.99
2018-06-27T05:06:00.752Z,99.18
2018-06-27T05:07:00.741Z,99.08
2018-06-27T05:08:00.735Z,99.28
2018-06-27T05:09:00.726Z,98.99
2018-06-27T05:10:00.718Z,98.71
2018-06-27T05:11:00.715Z,99.18
2018-06-27T05:12:00.703Z,99.04
2018-06-27T05:13:00.699Z,98.37
2018-06-27T05:14:00.889Z,98.37
2018-06-27T05:15:00.680Z,98.37
2018-06-27T05:16:00.689Z,98.94
2018-06-27T05:17:00.670Z,98.94
2018-06-27T05:18:00.658Z,99.14
2018-06-27T05:19:00.651Z,98.37
2018-06-27T05:20:00.645Z,98.75
2018-06-27T05:21:00.636Z,98.28
2018-06-27T05:22:00.634Z,98.47
2018-06-27T05:23:00.621Z,98.47
2018-06-27T05:24:00.614Z,99.14
2018-06-27T05:25:00.608Z,98.94
2018-06-27T05:26:00.599Z,98.37
2018-06-27T05:27:00.592Z,98.71
2018-06-27T05:28:00.585Z,98.52
2018-06-27T05:29:00.581Z,98.52
2018-06-27T05:30:00.570Z,98.52
2018-06-27T05:31:00.567Z,98.90
2018-06-27T05:32:00.758Z,97.85
2018-06-27T05:33:00.550Z,98.90
2018-06-27T05:34:00.653Z,98.13
2018-06-27T05:35:00.539Z,98.33
2018-06-27T05:36:00.528Z,98.33
2018-06-27T05:37:00.523Z,98.47
2018-06-27T05:38:00.518Z,97.85
2018-06-27T05:39:00.506Z,97.90
2018-06-27T05:40:00.508Z,98.38
2018-06-27T05:41:00.493Z,98.28
2018-06-27T05:42:00.489Z,98.28
2018-06-27T05:43:00.483Z,97.71
2018-06-27T05:44:00.472Z,97.90
2018-06-27T05:45:00.471Z,97.13
2018-06-27T05:46:00.459Z,96.94
2018-06-27T05:47:00.452Z,97.23
2018-06-27T05:48:00.447Z,97.04
2018-06-27T05:49:00.439Z,96.84
2018-06-27T05:50:00.431Z,96.66
2018-06-27T05:51:00.426Z,96.47
2018-06-27T05:52:00.623Z,96.51
2018-06-27T05:53:00.413Z,96.70
2018-06-27T05:54:00.409Z,96.22
2018-06-27T05:55:00.398Z,96.32
2018-06-27T05:56:00.396Z,96.70
2018-06-27T05:57:00.388Z,96.13
2018-06-27T05:58:00.386Z,96.99
2018-06-27T05:59:00.371Z,96.80
2018-06-27T06:00:00.367Z,96.61
2018-06-27T06:01:00.364Z,96.37
2018-06-27T06:02:00.352Z,96.47
2018-06-27T06:03:00.352Z,95.61
2018-06-27T06:04:00.340Z,95.70
2018-06-27T06:05:00.536Z,95.31
2018-06-27T06:06:00.329Z,95.61
2018-06-27T06:07:00.328Z,95.41
2018-06-27T06:08:00.314Z,95.61
2018-06-27T06:09:00.308Z,95.51
2018-06-27T06:10:00.311Z,95.70
2018-06-27T06:11:00.297Z,95.46
2018-06-27T06:12:00.291Z,95.75
2018-06-27T06:13:00.284Z,95.03
2018-06-27T06:14:00.282Z,95.27
2018-06-27T06:15:00.273Z,95.46
2018-06-27T06:16:00.268Z,95.07
2018-06-27T06:17:00.264Z,95.17
2018-06-27T06:18:00.257Z,94.69
2018-06-27T06:19:00.248Z,95.27
2018-06-27T06:20:00.246Z,94.60
2018-06-27T06:21:00.242Z,94.12
2018-06-27T06:22:00.231Z,93.83
2018-06-27T06:23:00.229Z,93.54
2018-06-27T06:24:00.422Z,94.02
2018-06-27T06:25:00.215Z,94.17
2018-06-27T06:26:00.208Z,94.26
2018-06-27T06:27:00.206Z,94.17
2018-06-27T06:28:00.197Z,94.35
2018-06-27T06:29:00.193Z,93.78
2018-06-27T06:30:00.186Z,93.88
2018-06-27T06:31:00.184Z,94.07
2018-06-27T06:32:00.180Z,94.07
2018-06-27T06:33:00.174Z,93.40
2018-06-27T06:34:00.164Z,93.06
2018-06-27T06:35:00.159Z,92.20
2018-06-27T06:36:00.154Z,91.53
2018-06-27T06:37:00.148Z,91.72
2018-06-27T06:38:00.142Z,91.82
2018-06-27T06:39:00.138Z,91.91
2018-06-27T06:40:00.133Z,91.72
2018-06-27T06:41:00.131Z,91.63
2018-06-27T06:42:00.121Z,91.53
2018-06-27T06:43:00.117Z,90.76
2018-06-27T06:44:00.115Z,90.95
2018-06-27T06:45:00.110Z,90.57
2018-06-27T06:46:00.120Z,90.14
2018-06-27T06:47:00.100Z,90.42
2018-06-27T06:48:00.092Z,91.00
2018-06-27T06:49:00.091Z,90.61
2018-06-27T06:50:00.084Z,90.81
2018-06-27T06:51:00.078Z,89.75
2018-06-27T06:52:00.076Z,89.56
2018-06-27T06:53:00.069Z,89.94
2018-06-27T06:54:00.067Z,89.89
2018-06-27T06:55:00.065Z,89.41
2018-06-27T06:56:00.055Z,89.03
2018-06-27T06:57:00.055Z,89.61
2018-06-27T06:58:00.248Z,89.70
2018-06-27T06:59:00.044Z,88.79
2018-06-27T07:00:00.048Z,88.55
2018-06-27T07:01:00.047Z,88.21
2018-06-27T07:02:00.032Z,87.92
2018-06-27T07:03:00.025Z,87.82
2018-06-27T07:04:00.029Z,86.48
2018-06-27T07:05:00.131Z,86.68
2018-06-27T07:06:00.013Z,86.58
2018-06-27T07:07:00.008Z,86.87
2018-06-27T07:08:00.012Z,86.72
2018-06-27T07:09:00.803Z,86.05
2018-06-27T07:09:59.995Z,86.91
2018-06-27T07:11:00.030Z,87.10
2018-06-27T07:11:59.989Z,85.95
2018-06-27T07:12:59.991Z,85.75
2018-06-27T07:13:59.985Z,85.75
2018-06-27T07:14:59.980Z,85.22
2018-06-27T07:15:59.979Z,84.94
2018-06-27T07:16:59.976Z,85.03
2018-06-27T07:17:59.974Z,85.03
2018-06-27T07:18:59.973Z,86.18
2018-06-27T07:19:59.966Z,85.61
2018-06-27T07:20:59.967Z,83.83
2018-06-27T07:21:59.961Z,83.44
2018-06-27T07:22:59.964Z,84.21
2018-06-27T07:23:59.959Z,82.52
2018-06-27T07:24:59.963Z,82.23
2018-06-27T07:25:59.963Z,82.61
2018-06-27T07:26:59.955Z,81.60
2018-06-27T07:28:00.156Z,80.35
2018-06-27T07:28:59.954Z,81.50
2018-06-27T07:30:00.010Z,80.19
2018-06-27T07:30:59.951Z,78.36
2018-06-27T07:32:00.157Z,78.75
2018-06-27T07:32:59.949Z,77.88
2018-06-27T07:33:59.948Z,77.59
2018-06-27T07:34:59.949Z,77.40
2018-06-27T07:35:59.971Z,78.50
2018-06-27T07:36:59.948Z,77.34
2018-06-27T07:37:59.948Z,76.32
2018-06-27T07:38:59.955Z,75.45
2018-06-27T07:39:59.951Z,76.03
2018-06-27T07:40:59.953Z,75.93
2018-06-27T07:41:59.954Z,75.59
2018-06-27T07:42:59.963Z,73.27
2018-06-27T07:43:59.965Z,73.37
2018-06-27T07:44:59.965Z,72.73
2018-06-27T07:45:59.969Z,73.31
2018-06-27T07:46:59.973Z,74.02
2018-06-27T07:47:59.983Z,72.28
2018-06-27T07:48:59.985Z,70.36
2018-06-27T07:49:59.990Z,71.03
2018-06-27T07:51:00.199Z,72.77
2018-06-27T07:52:00.008Z,71.42
2018-06-27T07:53:00.030Z,71.42
2018-06-27T07:54:00.018Z,72.22
2018-06-27T07:55:00.036Z,70.78
2018-06-27T07:56:00.044Z,69.81
2018-06-27T07:57:00.042Z,69.90
2018-06-27T07:58:00.050Z,70.23
2018-06-27T07:59:00.056Z,70.32
2018-06-27T08:00:00.101Z,69.10
2018-06-27T08:01:00.082Z,68.91
2018-06-27T08:02:00.083Z,69.40
2018-06-27T08:03:00.090Z,67.94
2018-06-27T08:04:00.101Z,66.88
2018-06-27T08:05:00.114Z,67.17
2018-06-27T08:06:00.222Z,66.72
2018-06-27T08:07:00.128Z,67.85
2018-06-27T08:08:00.140Z,67.36
2018-06-27T08:09:00.148Z,68.66
2018-06-27T08:10:00.157Z,66.91
2018-06-27T08:11:00.172Z,66.43
2018-06-27T08:12:00.181Z,66.82
2018-06-27T08:13:00.189Z,68.17
2018-06-27T08:14:00.199Z,67.01
2018-06-27T08:15:00.212Z,67.14
2018-06-27T08:16:00.220Z,66.17
2018-06-27T08:17:00.232Z,65.30
2018-06-27T08:18:00.465Z,65.79
2018-06-27T08:19:00.260Z,65.43
2018-06-27T08:20:00.267Z,65.63
2018-06-27T08:21:00.277Z,65.05
2018-06-27T08:22:00.290Z,64.17
2018-06-27T08:23:00.299Z,63.31
2018-06-27T08:24:00.311Z,62.72
2018-06-27T08:25:00.327Z,63.89
2018-06-27T08:26:00.380Z,62.92
2018-06-27T08:27:00.347Z,63.21
2018-06-27T08:28:00.361Z,64.66
2018-06-27T08:29:00.373Z,63.72
2018-06-27T08:30:00.386Z,64.20
2018-06-27T08:31:00.396Z,63.95
2018-06-27T08:32:00.407Z,61.33
2018-06-27T08:33:00.420Z,61.79
2018-06-27T08:34:00.432Z,62.27
2018-06-27T08:35:00.445Z,61.69
2018-06-27T08:36:00.457Z,63.62
2018-06-27T08:37:00.473Z,63.17
2018-06-27T08:38:00.483Z,60.65
2018-06-27T08:39:00.495Z,58.81
2018-06-27T08:40:00.509Z,60.46
2018-06-27T08:41:00.527Z,59.59
2018-06-27T08:42:00.742Z,60.10
2018-06-27T08:43:00.547Z,60.46
2018-06-27T08:44:00.561Z,59.59
2018-06-27T08:46:00.591Z,60.88
2018-06-27T08:47:00.600Z,59.64
2018-06-27T08:48:00.623Z,58.67
2018-06-27T08:49:00.627Z,58.39
2018-06-27T08:50:00.648Z,58.97
2018-06-27T08:51:00.654Z,59.19
2018-06-27T08:52:00.669Z,58.70
2018-06-27T08:53:00.687Z,58.83
2018-06-27T08:54:00.697Z,57.73
2018-06-27T08:55:00.712Z,57.73
2018-06-27T08:56:00.722Z,57.12
2018-06-27T08:57:00.736Z,57.80
2018-06-27T08:58:00.956Z,57.29
2018-06-27T08:59:00.763Z,57.58
2018-06-27T09:00:00.779Z,58.45
2018-06-27T09:01:00.791Z,59.64
2018-06-27T09:02:00.809Z,58.61
2018-06-27T09:03:00.828Z,58.22
2018-06-27T09:04:00.833Z,56.86
2018-06-27T09:05:00.848Z,57.93
2018-06-27T09:06:00.861Z,56.40
2018-06-27T09:07:00.875Z,56.28
2018-06-27T09:08:00.899Z,58.03
2018-06-27T09:09:00.904Z,57.18
2018-06-27T09:10:01.120Z,56.70
2018-06-27T09:11:00.932Z,56.34
2018-06-27T09:12:00.947Z,54.68
2018-06-27T09:13:00.964Z,54.66
2018-06-27T09:14:01.178Z,54.36
2018-06-27T09:15:00.990Z,55.55
2018-06-27T09:16:01.005Z,55.94
2018-06-27T09:17:01.222Z,55.46
2018-06-27T09:18:01.037Z,55.75
2018-06-27T09:19:01.050Z,55.07
2018-06-27T09:20:01.064Z,55.85
2018-06-27T09:21:01.083Z,55.46
2018-06-27T09:22:01.095Z,54.39
2018-06-27T09:23:01.111Z,54.20
2018-06-27T09:24:01.123Z,53.91
2018-06-27T09:25:01.141Z,55.17
2018-06-27T09:26:01.153Z,55.29
2018-06-27T09:27:01.171Z,53.35
2018-06-27T09:28:01.184Z,53.71
2018-06-27T09:29:01.200Z,54.68
2018-06-27T09:30:01.215Z,53.45
2018-06-27T09:31:01.232Z,54.03
2018-06-27T09:32:01.252Z,54.22
2018-06-27T09:33:01.262Z,53.86
2018-06-27T09:34:01.331Z,54.66
2018-06-27T09:35:01.295Z,53.11
2018-06-27T09:36:01.312Z,53.89
2018-06-27T09:37:01.324Z,52.75
2018-06-27T09:38:01.339Z,51.84
2018-06-27T09:39:01.355Z,52.43
2018-06-27T09:40:01.395Z,52.43
2018-06-27T09:41:01.387Z,52.33
2018-06-27T09:42:01.491Z,50.97
2018-06-27T09:43:01.418Z,51.65
2018-06-27T09:44:01.434Z,52.69
2018-06-27T09:45:01.468Z,52.19
2018-06-27T09:46:01.472Z,54.44
2018-06-27T09:47:01.482Z,54.05
2018-06-27T09:48:01.549Z,53.99
2018-06-27T09:49:01.514Z,53.81
2018-06-27T09:50:01.532Z,51.58
2018-06-27T09:51:01.748Z,50.60
2018-06-27T09:52:01.561Z,50.70
2018-06-27T09:53:01.579Z,50.70
2018-06-27T09:54:01.597Z,51.19
2018-06-27T09:55:01.609Z,51.29
2018-06-27T09:56:01.627Z,50.70
2018-06-27T09:57:01.708Z,51.12
2018-06-27T09:58:01.658Z,51.39
2018-06-27T09:59:01.674Z,51.26
2018-06-27T10:00:01.692Z,51.45
2018-06-27T10:01:01.713Z,51.39
2018-06-27T10:02:01.756Z,51.80
2018-06-27T10:03:01.741Z,49.56
2018-06-27T10:04:01.960Z,51.12
2018-06-27T10:05:01.785Z,49.97
2018-06-27T10:06:01.789Z,49.97
2018-06-27T10:07:01.806Z,51.04
2018-06-27T10:08:01.830Z,48.44
2018-06-27T10:09:01.847Z,47.36
2018-06-27T10:10:01.859Z,47.95
2018-06-27T10:11:01.886Z,48.54
2018-06-27T10:12:01.892Z,48.34
2018-06-27T10:13:01.910Z,47.53
2018-06-27T10:14:01.925Z,47.25
2018-06-27T10:15:01.942Z,48.12
2018-06-27T10:16:01.964Z,47.52
2018-06-27T10:17:02.060Z,48.88
2018-06-27T10:18:01.992Z,48.66
2018-06-27T10:19:02.011Z,49.24
2018-06-27T10:20:02.031Z,51.48
2018-06-27T10:21:02.045Z,49.76
2018-06-27T10:22:02.059Z,49.88
2018-06-27T10:23:02.077Z,48.73
2018-06-27T10:24:02.094Z,47.95
2018-06-27T10:25:02.118Z,48.17
2018-06-27T10:26:02.134Z,48.00
2018-06-27T10:27:02.148Z,46.49
2018-06-27T10:28:02.165Z,48.36
2018-06-27T10:29:02.181Z,48.46
2018-06-27T10:30:02.197Z,48.10
2018-06-27T10:31:02.214Z,45.85
2018-06-27T10:32:02.231Z,46.61
2018-06-27T10:33:02.252Z,47.27
2018-06-27T10:34:02.265Z,46.95
2018-06-27T10:35:02.487Z,46.66
2018-06-27T10:36:02.304Z,46.66
2018-06-27T10:37:02.320Z,47.34
2018-06-27T10:38:02.338Z,47.95
2018-06-27T10:39:02.352Z,47.44
2018-06-27T10:40:02.373Z,47.46
2018-06-27T10:41:02.387Z,46.78
2018-06-27T10:42:02.406Z,45.54
2018-06-27T10:43:02.424Z,44.17
2018-06-27T10:44:02.440Z,43.29
2018-06-27T10:45:02.460Z,43.22
2018-06-27T10:46:02.474Z,44.38
2018-06-27T10:47:02.492Z,43.32
2018-06-27T10:48:02.520Z,46.75
2018-06-27T10:49:02.531Z,44.29
2018-06-27T10:50:02.544Z,45.58
2018-06-27T10:51:02.565Z,45.87
2018-06-27T10:52:02.586Z,45.00
2018-06-27T10:53:02.601Z,47.05
2018-06-27T10:54:02.615Z,46.58
2018-06-27T10:55:02.635Z,44.63
2018-06-27T10:56:02.652Z,45.43
2018-06-27T10:57:02.677Z,44.16
2018-06-27T10:58:02.697Z,43.48
2018-06-27T10:59:02.709Z,42.89
2018-06-27T11:00:02.723Z,42.30
2018-06-27T11:01:02.802Z,42.30
2018-06-27T11:02:02.759Z,42.77
2018-06-27T11:03:02.777Z,42.38
2018-06-27T11:04:02.798Z,41.50
2018-06-27T11:05:02.814Z,42.30
2018-06-27T11:06:02.831Z,42.77
2018-06-27T11:07:02.849Z,44.26
2018-06-27T11:08:02.868Z,43.40
2018-06-27T11:09:02.889Z,42.89
2018-06-27T11:10:02.904Z,44.10
2018-06-27T11:11:02.932Z,40.88
2018-06-27T11:12:02.941Z,41.05
2018-06-27T11:13:02.962Z,40.29
2018-06-27T11:14:02.979Z,40.47
2018-06-27T11:15:03.002Z,42.05
2018-06-27T11:16:03.015Z,40.88
2018-06-27T11:17:03.039Z,41.86
2018-06-27T11:18:03.052Z,43.03
2018-06-27T11:19:03.075Z,42.52
2018-06-27T11:20:03.093Z,42.13
2018-06-27T11:21:03.108Z,41.25
2018-06-27T11:22:03.128Z,43.01
2018-06-27T11:23:03.146Z,41.25
2018-06-27T11:24:03.168Z,42.52
2018-06-27T11:25:03.183Z,41.54
2018-06-27T11:26:03.203Z,42.71
2018-06-27T11:27:03.295Z,41.44
2018-06-27T11:28:03.239Z,41.52
2018-06-27T11:29:03.263Z,41.35
2018-06-27T11:30:03.276Z,40.27
2018-06-27T11:31:03.298Z,42.42
2018-06-27T11:32:03.313Z,42.81
2018-06-27T11:33:03.333Z,41.66
2018-06-27T11:34:03.351Z,42.13
2018-06-27T11:35:03.371Z,41.72
2018-06-27T11:36:03.389Z,41.60
2018-06-27T11:37:03.411Z,40.23
2018-06-27T11:38:03.428Z,41.21
2018-06-27T11:39:03.446Z,40.33
2018-06-27T11:40:03.466Z,42.58
2018-06-27T11:41:03.481Z,41.50
2018-06-27T11:42:03.499Z,41.80
2018-06-27T11:43:03.521Z,41.97
2018-06-27T11:44:03.535Z,41.48
2018-06-27T11:45:03.554Z,42.19
2018-06-27T11:46:03.779Z,42.48
2018-06-27T11:47:03.589Z,41.33
2018-06-27T11:48:03.610Z,40.08
2018-06-27T11:49:03.627Z,40.27
2018-06-27T11:50:03.643Z,38.82
2018-06-27T11:51:03.667Z,39.78
2018-06-27T11:52:03.683Z,42.64
2018-06-27T11:53:03.700Z,39.43
2018-06-27T11:54:03.714Z,40.50
2018-06-27T11:55:03.939Z,39.94
2018-06-27T11:56:03.755Z,38.98
2018-06-27T11:57:03.770Z,38.00
2018-06-27T11:58:03.787Z,37.10
2018-06-27T11:59:03.808Z,37.08
2018-06-27T12:00:03.824Z,37.47
2018-06-27T12:01:03.842Z,36.20
2018-06-27T12:02:03.864Z,37.96
2018-06-27T12:03:03.880Z,38.84
2018-06-27T12:04:03.896Z,37.55
2018-06-27T12:05:03.918Z,38.92
2018-06-27T12:06:03.933Z,37.65
2018-06-27T12:07:04.151Z,37.45
2018-06-27T12:08:03.968Z,37.85
2018-06-27T12:09:03.985Z,37.26
2018-06-27T12:10:04.004Z,37.35
2018-06-27T12:11:04.019Z,37.65
2018-06-27T12:12:04.037Z,38.24
2018-06-27T12:13:04.061Z,38.55
2018-06-27T12:14:04.071Z,39.06
2018-06-27T12:15:04.089Z,39.86
2018-06-27T12:16:04.107Z,38.29
2018-06-27T12:17:04.130Z,36.84
2018-06-27T12:18:04.142Z,39.00
2018-06-27T12:19:04.160Z,34.59
2018-06-27T12:20:04.184Z,33.12
2018-06-27T12:21:04.204Z,34.20
2018-06-27T12:22:04.212Z,33.41
2018-06-27T12:23:04.231Z,35.55
2018-06-27T12:24:04.247Z,35.17
2018-06-27T12:25:04.269Z,35.94
2018-06-27T12:26:04.281Z,38.29
2018-06-27T12:27:04.305Z,37.12
2018-06-27T12:28:04.317Z,35.96
2018-06-27T12:29:04.339Z,36.08
2018-06-27T12:30:04.353Z,35.68
2018-06-27T12:31:04.369Z,35.58
2018-06-27T12:32:04.389Z,34.80
2018-06-27T12:33:04.406Z,34.92
2018-06-27T12:34:04.423Z,32.07
2018-06-27T12:35:04.437Z,31.77
2018-06-27T12:36:04.459Z,31.58
2018-06-27T12:37:04.473Z,32.06
2018-06-27T12:38:04.492Z,32.74
2018-06-27T12:39:04.511Z,34.01
2018-06-27T12:40:04.524Z,31.96
2018-06-27T12:41:04.541Z,32.04
2018-06-27T12:42:04.760Z,32.73
2018-06-27T12:43:04.780Z,33.23
2018-06-27T12:44:04.592Z,32.54
2018-06-27T12:45:04.614Z,30.70
2018-06-27T12:46:04.625Z,31.30
2018-06-27T12:47:04.642Z,31.40
2018-06-27T12:48:04.663Z,30.60
2018-06-27T12:49:04.683Z,32.64
2018-06-27T12:50:04.824Z,32.86
2018-06-27T12:51:04.711Z,30.88
2018-06-27T12:52:04.729Z,31.96
2018-06-27T12:53:04.745Z,33.05